createdAt,value
2022-08-21T00:01:38.806Z,4.35
2022-08-21T00:04:07.984Z,9.57
2022-08-21T00:06:35.096Z,7.03
2022-08-21T00:09:06.752Z,5.65
2022-08-21T00:11:36.111Z,5.80
2022-08-21T00:14:04.941Z,4.87
2022-08-21T00:16:31.874Z,5.20
2022-08-21T00:18:59.015Z,5.87
2022-08-21T00:21:26.272Z,6.65
2022-08-21T00:23:53.939Z,4.32
2022-08-21T00:26:20.782Z,5.18
2022-08-21T00:28:49.890Z,6.63
2022-08-21T00:31:18.993Z,6.07
2022-08-21T00:33:46.488Z,5.05
2022-08-21T00:36:14.247Z,7.10
2022-08-21T00:38:41.240Z,4.97
2022-08-21T00:41:36.415Z,6.10
2022-08-21T00:43:58.382Z,5.32
2022-08-21T00:46:28.546Z,6.35
2022-08-21T00:48:57.262Z,5.05
2022-08-21T00:51:54.541Z,7.72
2022-08-21T00:54:25.593Z,5.63
2022-08-21T00:57:00.904Z,5.82
2022-08-21T00:59:30.905Z,4.75
2022-08-21T01:01:57.879Z,4.87
2022-08-21T01:04:25.238Z,6.03
2022-08-21T01:06:52.610Z,5.73
2022-08-21T01:09:20.019Z,6.20
2022-08-21T01:11:47.635Z,6.60
2022-08-21T01:14:15.504Z,5.62
2022-08-21T01:16:45.770Z,4.90
2022-08-21T01:19:13.787Z,7.07
2022-08-21T01:21:40.965Z,6.80
2022-08-21T01:24:11.356Z,6.55
2022-08-21T01:26:38.247Z,6.15
2022-08-21T01:29:30.111Z,7.82
2022-08-21T01:31:57.450Z,5.27
2022-08-21T01:34:24.497Z,5.45
2022-08-21T01:36:51.413Z,6.95
2022-08-21T01:39:18.754Z,8.10
2022-08-21T01:41:45.700Z,6.30
2022-08-21T01:44:12.609Z,7.57
2022-08-21T01:46:39.623Z,8.13
2022-08-21T01:49:06.705Z,6.60
2022-08-21T01:51:33.634Z,6.28
2022-08-21T01:54:00.485Z,8.93
2022-08-21T01:56:28.837Z,7.30
2022-08-21T01:58:55.849Z,10.23
2022-08-21T02:01:22.730Z,8.95
2022-08-21T02:03:49.640Z,7.50
2022-08-21T02:06:18.955Z,9.50
2022-08-21T02:08:47.284Z,7.17
2022-08-21T02:11:14.303Z,8.82
2022-08-21T02:13:41.426Z,8.38
2022-08-21T02:16:09.094Z,6.20
2022-08-21T02:18:36.496Z,8.55
2022-08-21T02:21:04.961Z,10.37
2022-08-21T02:23:32.699Z,10.48
2022-08-21T02:26:01.002Z,9.30
2022-08-21T02:28:28.156Z,9.93
2022-08-21T02:30:56.747Z,11.35
2022-08-21T02:33:24.776Z,9.47
2022-08-21T02:35:52.964Z,9.90
2022-08-21T02:38:27.475Z,9.45
2022-08-21T02:40:55.306Z,10.65
2022-08-21T02:43:24.322Z,11.35
2022-08-21T02:45:52.441Z,11.90
2022-08-21T02:48:29.107Z,8.68
2022-08-21T02:51:01.895Z,10.45
2022-08-21T02:53:30.122Z,8.98
2022-08-21T02:56:00.303Z,12.65
2022-08-21T02:58:35.085Z,8.23
2022-08-21T03:01:02.242Z,9.95
2022-08-21T03:03:30.226Z,9.85
2022-08-21T03:05:57.836Z,10.35
2022-08-21T03:08:27.397Z,9.18
2022-08-21T03:10:55.107Z,10.33
2022-08-21T03:13:22.526Z,8.82
2022-08-21T03:15:50.860Z,10.80
2022-08-21T03:18:18.298Z,8.90
2022-08-21T03:20:46.278Z,10.35
2022-08-21T03:23:14.404Z,10.47
2022-08-21T03:25:46.844Z,11.12
2022-08-21T03:28:18.917Z,11.07
2022-08-21T03:30:47.556Z,14.20
2022-08-21T03:33:15.197Z,10.38
2022-08-21T03:35:48.503Z,11.10
2022-08-21T03:38:15.935Z,8.18
2022-08-21T03:40:44.221Z,10.13
2022-08-21T03:43:11.606Z,11.98
2022-08-21T03:45:39.429Z,11.02
2022-08-21T03:48:08.026Z,11.23
2022-08-21T03:50:40.644Z,11.45
2022-08-21T03:53:16.504Z,10.95
2022-08-21T03:55:49.582Z,11.60
2022-08-21T03:58:18.012Z,13.90
2022-08-21T04:00:50.888Z,10.70
2022-08-21T04:03:18.946Z,11.43
2022-08-21T04:05:46.955Z,10.57
2022-08-21T04:08:15.812Z,10.65
2022-08-21T04:10:44.837Z,14.90
2022-08-21T04:13:12.290Z,11.40
2022-08-21T04:15:39.736Z,9.65
2022-08-21T04:18:06.730Z,10.07
2022-08-21T04:20:34.506Z,10.98
2022-08-21T04:23:02.434Z,10.73
2022-08-21T04:25:29.736Z,8.63
2022-08-21T04:27:58.998Z,14.07
2022-08-21T04:30:28.488Z,9.13
2022-08-21T04:32:57.967Z,11.35
2022-08-21T04:35:26.869Z,10.32
2022-08-21T04:37:54.202Z,12.70
2022-08-21T04:40:22.763Z,9.60
2022-08-21T04:42:52.445Z,12.95
2022-08-21T04:45:44.128Z,11.50
2022-08-21T04:48:14.475Z,10.50
2022-08-21T04:50:46.582Z,11.43
2022-08-21T04:53:19.064Z,13.85
2022-08-21T04:55:46.831Z,9.80
2022-08-21T04:58:18.440Z,10.98
2022-08-21T05:00:46.952Z,12.68
2022-08-21T05:03:16.124Z,12.30
2022-08-21T05:05:44.327Z,11.88
2022-08-21T05:08:15.464Z,10.20
2022-08-21T05:10:44.223Z,12.05
2022-08-21T05:13:13.577Z,10.35
2022-08-21T05:15:41.307Z,13.83
2022-08-21T05:18:08.166Z,13.38
2022-08-21T05:20:35.559Z,11.07
2022-08-21T05:23:08.849Z,13.80
2022-08-21T05:25:36.019Z,13.35
2022-08-21T05:28:03.853Z,11.00
2022-08-21T05:30:31.255Z,10.50
2022-08-21T05:33:03.435Z,9.73
2022-08-21T05:35:31.077Z,11.40
2022-08-21T05:37:58.424Z,9.63
2022-08-21T05:40:25.809Z,10.60
2022-08-21T05:42:55.389Z,10.98
2022-08-21T05:45:41.361Z,13.62
2022-08-21T05:48:31.079Z,10.30
2022-08-21T05:50:58.027Z,9.90
2022-08-21T05:53:25.773Z,9.67
2022-08-21T05:55:52.918Z,8.15
2022-08-21T05:58:22.017Z,10.15
2022-08-21T06:00:50.558Z,9.18
2022-08-21T06:03:24.159Z,7.35
2022-08-21T06:05:51.170Z,6.50
2022-08-21T06:08:19.540Z,7.50
2022-08-21T06:10:48.125Z,8.40
2022-08-21T06:13:17.478Z,8.25
2022-08-21T06:15:44.438Z,8.27
2022-08-21T06:18:12.303Z,6.10
2022-08-21T06:20:39.949Z,7.80
2022-08-21T06:23:07.046Z,6.78
2022-08-21T06:25:34.230Z,8.25
2022-08-21T06:28:06.618Z,7.40
2022-08-21T06:30:34.416Z,7.97
2022-08-21T06:33:01.473Z,7.00
2022-08-21T06:35:30.120Z,9.90
2022-08-21T06:37:58.557Z,7.75
2022-08-21T06:40:29.652Z,6.10
2022-08-21T06:42:58.703Z,7.80
2022-08-21T06:45:26.019Z,7.28
2022-08-21T06:47:55.280Z,7.57
2022-08-21T06:50:22.595Z,6.62
2022-08-21T06:52:49.423Z,7.85
2022-08-21T06:55:22.306Z,5.87
2022-08-21T06:57:52.627Z,6.90
2022-08-21T07:00:20.158Z,5.90
2022-08-21T07:02:46.997Z,6.70
2022-08-21T07:05:17.865Z,9.18
2022-08-21T07:07:46.750Z,6.80
2022-08-21T07:10:22.333Z,7.30
2022-08-21T07:12:51.276Z,7.25
2022-08-21T07:15:27.872Z,7.82
2022-08-21T07:17:54.955Z,8.20
2022-08-21T07:20:21.879Z,6.63
2022-08-21T07:22:48.657Z,5.90
2022-08-21T07:25:15.563Z,7.72
2022-08-21T07:27:53.199Z,7.10
2022-08-21T07:30:20.435Z,8.02
2022-08-21T07:32:50.267Z,5.90
2022-08-21T07:35:19.569Z,7.85
2022-08-21T07:37:47.354Z,6.20
2022-08-21T07:40:15.024Z,6.00
2022-08-21T07:42:51.011Z,7.22
2022-08-21T07:45:19.939Z,6.87
2022-08-21T07:47:47.267Z,10.30
2022-08-21T07:50:15.152Z,7.82
2022-08-21T07:52:42.664Z,6.53
2022-08-21T07:55:13.319Z,6.85
2022-08-21T07:57:40.703Z,7.30
2022-08-21T08:00:11.530Z,7.45
2022-08-21T08:02:38.502Z,6.55
2022-08-21T08:05:08.113Z,8.23
2022-08-21T08:07:35.470Z,7.53
2022-08-21T08:10:04.530Z,5.77
2022-08-21T08:12:38.099Z,5.80
2022-08-21T08:15:07.390Z,6.80
2022-08-21T08:17:34.375Z,6.80
2022-08-21T08:20:04.094Z,11.10
2022-08-21T08:22:31.147Z,8.33
2022-08-21T08:24:58.100Z,7.15
2022-08-21T08:27:24.953Z,8.00
2022-08-21T08:29:52.488Z,5.82
2022-08-21T08:32:20.138Z,5.93
2022-08-21T08:34:48.184Z,8.23
2022-08-21T08:37:15.030Z,7.00
2022-08-21T08:39:42.306Z,7.30
2022-08-21T08:42:33.524Z,6.00
2022-08-21T08:45:04.513Z,7.18
2022-08-21T08:47:35.684Z,8.23
2022-08-21T08:50:26.696Z,6.60
2022-08-21T08:53:00.045Z,7.03
2022-08-21T08:55:44.924Z,5.65
2022-08-21T08:58:40.441Z,8.88
2022-08-21T09:01:18.719Z,7.00
2022-08-21T09:03:51.222Z,5.70
2022-08-21T09:06:17.958Z,7.53
2022-08-21T09:09:10.084Z,7.47
2022-08-21T09:11:57.398Z,7.10
2022-08-21T09:14:41.360Z,8.07
2022-08-21T09:17:45.065Z,8.38
2022-08-21T09:20:24.566Z,7.85
2022-08-21T09:23:26.405Z,7.68
2022-08-21T09:26:18.643Z,10.68
2022-08-21T09:28:47.267Z,6.90
2022-08-21T09:31:27.692Z,8.38
2022-08-21T09:34:02.744Z,7.22
2022-08-21T09:36:51.471Z,8.57
2022-08-21T09:39:31.732Z,8.90
2022-08-21T09:41:58.544Z,5.73
2022-08-21T09:44:28.290Z,6.75
2022-08-21T09:46:55.497Z,7.07
2022-08-21T09:49:30.054Z,6.80
2022-08-21T09:51:58.178Z,7.65
2022-08-21T09:54:31.342Z,7.13
2022-08-21T09:57:46.438Z,6.65
2022-08-21T10:00:19.759Z,6.22
2022-08-21T10:02:47.302Z,6.53
2022-08-21T10:05:32.529Z,8.65
2022-08-21T10:08:02.186Z,6.07
2022-08-21T10:10:37.161Z,6.97
2022-08-21T10:13:32.691Z,5.62
2022-08-21T10:16:05.324Z,4.55
2022-08-21T10:18:55.359Z,7.47
2022-08-21T10:21:34.929Z,5.50
2022-08-21T10:24:24.003Z,7.50
2022-08-21T10:27:03.896Z,8.05
2022-08-21T10:30:09.199Z,6.37
2022-08-21T10:33:06.135Z,5.57
2022-08-21T10:35:52.690Z,7.17
2022-08-21T10:38:55.294Z,5.28
2022-08-21T10:41:46.702Z,5.10
2022-08-21T10:44:25.578Z,7.20
2022-08-21T10:47:05.986Z,5.68
2022-08-21T10:50:10.491Z,7.50
2022-08-21T10:53:10.908Z,5.07
2022-08-21T10:55:44.609Z,8.80
2022-08-21T10:58:29.315Z,7.35
2022-08-21T11:01:18.902Z,5.53
2022-08-21T11:03:53.093Z,5.70
2022-08-21T11:06:26.135Z,5.97
2022-08-21T11:09:00.782Z,6.15
2022-08-21T11:11:59.442Z,6.47
2022-08-21T11:15:03.298Z,8.20
2022-08-21T11:18:10.820Z,8.57
2022-08-21T11:20:50.000Z,4.93
2022-08-21T11:23:26.000Z,8.73
2022-08-21T11:26:02.756Z,7.90
2022-08-21T11:28:36.738Z,6.60
2022-08-21T11:31:15.593Z,7.50
2022-08-21T11:33:59.680Z,6.20
2022-08-21T11:36:32.840Z,7.37
2022-08-21T11:39:25.831Z,4.60
2022-08-21T11:42:09.221Z,4.87
2022-08-21T11:44:38.778Z,5.03
2022-08-21T11:47:43.825Z,7.47
2022-08-21T11:50:34.414Z,5.03
2022-08-21T11:53:29.829Z,5.47
2022-08-21T11:56:02.870Z,8.10
2022-08-21T11:58:36.398Z,5.32
2022-08-21T12:01:09.808Z,6.28
2022-08-21T12:03:41.232Z,5.47
2022-08-21T12:06:24.561Z,5.62
2022-08-21T12:09:01.140Z,5.83
2022-08-21T12:11:31.085Z,4.22
2022-08-21T12:14:02.195Z,6.75
2022-08-21T12:16:34.866Z,6.80
2022-08-21T12:19:12.028Z,6.95
2022-08-21T12:22:13.695Z,8.17
2022-08-21T12:24:48.889Z,7.87
2022-08-21T12:27:26.743Z,7.07
2022-08-21T12:30:28.882Z,8.70
2022-08-21T12:33:00.090Z,7.68
2022-08-21T12:35:34.722Z,5.73
2022-08-21T12:38:17.071Z,5.57
2022-08-21T12:40:51.356Z,5.57
2022-08-21T12:43:25.056Z,6.30
2022-08-21T12:45:53.261Z,7.10
2022-08-21T12:48:34.449Z,6.70
2022-08-21T12:51:17.899Z,6.03
2022-08-21T12:53:53.423Z,6.12
2022-08-21T12:56:22.715Z,7.60
2022-08-21T12:59:02.933Z,5.65
2022-08-21T13:01:48.753Z,4.20
2022-08-21T13:04:22.421Z,3.80
2022-08-21T13:06:54.060Z,6.68
2022-08-21T13:09:28.150Z,6.07
2022-08-21T13:11:55.750Z,6.87
2022-08-21T13:14:45.268Z,5.03
2022-08-21T13:17:23.672Z,8.00
2022-08-21T13:20:02.152Z,6.22
2022-08-21T13:22:33.399Z,5.90
2022-08-21T13:25:06.496Z,5.45
2022-08-21T13:27:35.399Z,7.17
2022-08-21T13:30:15.661Z,9.50
2022-08-21T13:32:49.689Z,5.80
2022-08-21T13:35:28.043Z,6.22
2022-08-21T13:37:56.332Z,4.50
2022-08-21T13:40:31.396Z,6.30
2022-08-21T13:42:58.965Z,5.68
2022-08-21T13:45:32.299Z,6.12
2022-08-21T13:48:06.122Z,6.10
2022-08-21T13:50:36.212Z,5.45
2022-08-21T13:53:07.333Z,4.68
2022-08-21T13:55:41.605Z,6.25
2022-08-21T13:58:10.419Z,6.40
2022-08-21T14:00:51.667Z,5.72
2022-08-21T14:03:46.252Z,5.70
2022-08-21T14:06:17.774Z,5.13
2022-08-21T14:08:52.167Z,2.92
2022-08-21T14:11:19.221Z,6.90
2022-08-21T14:13:49.512Z,4.78
2022-08-21T14:16:20.031Z,3.90
2022-08-21T14:18:52.667Z,3.70
2022-08-21T14:21:30.569Z,3.33
2022-08-21T14:24:04.783Z,3.72
2022-08-21T14:26:32.053Z,5.18
2022-08-21T14:29:00.972Z,3.45
2022-08-21T14:31:33.917Z,3.77
2022-08-21T14:34:00.884Z,3.60
2022-08-21T14:36:28.177Z,3.37
2022-08-21T14:38:55.008Z,4.15
2022-08-21T14:41:28.660Z,2.87
2022-08-21T14:44:04.361Z,8.40
2022-08-21T14:46:43.994Z,4.57
2022-08-21T14:49:27.317Z,3.60
2022-08-21T14:51:58.389Z,4.07
2022-08-21T14:54:31.576Z,3.28
2022-08-21T14:57:06.712Z,2.50
2022-08-21T14:59:34.245Z,3.25
2022-08-21T15:02:04.177Z,3.47
2022-08-21T15:04:31.417Z,2.97
2022-08-21T15:06:58.199Z,4.28
2022-08-21T15:09:25.440Z,4.37
2022-08-21T15:11:58.202Z,3.35
2022-08-21T15:14:28.440Z,3.15
2022-08-21T15:16:55.478Z,3.03
2022-08-21T15:19:23.136Z,1.80
2022-08-21T15:21:50.337Z,2.03
2022-08-21T15:24:17.747Z,2.53
2022-08-21T15:26:45.978Z,3.87
2022-08-21T15:29:12.955Z,2.17
2022-08-21T15:32:01.185Z,3.75
2022-08-21T15:34:31.401Z,4.50
2022-08-21T15:36:58.858Z,1.90
2022-08-21T15:39:31.318Z,1.50
2022-08-21T15:42:08.266Z,2.55
2022-08-21T15:44:39.712Z,4.37
2022-08-21T15:47:08.335Z,2.80
2022-08-21T15:49:35.423Z,7.55
2022-08-21T15:52:02.365Z,6.25
2022-08-21T15:54:29.222Z,3.80
2022-08-21T15:56:56.099Z,4.60
2022-08-21T15:59:23.333Z,3.70
2022-08-21T16:01:52.263Z,3.65
2022-08-21T16:04:28.273Z,4.15
2022-08-21T16:07:01.765Z,4.47
2022-08-21T16:09:32.234Z,5.12
2022-08-21T16:12:01.184Z,8.13
2022-08-21T16:14:30.592Z,8.18
2022-08-21T16:16:57.705Z,7.30
2022-08-21T16:19:25.711Z,9.07
2022-08-21T16:21:52.878Z,10.43
2022-08-21T16:24:19.758Z,8.43
2022-08-21T16:26:46.727Z,7.47
2022-08-21T16:29:25.118Z,6.03
2022-08-21T16:31:53.544Z,8.85
2022-08-21T16:34:20.993Z,7.50
2022-08-21T16:36:48.084Z,9.13
2022-08-21T16:39:15.123Z,7.45
2022-08-21T16:41:41.994Z,6.68
2022-08-21T16:44:09.778Z,9.70
2022-08-21T16:46:40.925Z,8.48
2022-08-21T16:49:08.145Z,6.17
2022-08-21T16:51:34.981Z,7.07
2022-08-21T16:54:02.499Z,4.18
2022-08-21T16:56:30.062Z,7.60
2022-08-21T16:58:58.739Z,6.57
2022-08-21T17:01:31.751Z,4.93
2022-08-21T17:03:58.731Z,5.40
2022-08-21T17:06:29.151Z,5.10
2022-08-21T17:08:57.186Z,5.95
2022-08-21T17:11:40.707Z,6.03
2022-08-21T17:14:11.199Z,5.60
2022-08-21T17:16:39.851Z,6.97
2022-08-21T17:19:08.089Z,7.57
2022-08-21T17:21:35.630Z,6.87
2022-08-21T17:24:02.687Z,7.30
2022-08-21T17:26:29.913Z,10.40
2022-08-21T17:28:56.917Z,6.32
2022-08-21T17:31:24.025Z,7.90
2022-08-21T17:33:53.520Z,11.55
2022-08-21T17:36:23.380Z,7.78
2022-08-21T17:38:51.168Z,9.00
2022-08-21T17:41:22.775Z,5.78
2022-08-21T17:43:51.665Z,7.05
2022-08-21T17:46:26.169Z,5.12
2022-08-21T17:48:53.318Z,8.32
2022-08-21T17:51:20.329Z,8.83
2022-08-21T17:53:47.208Z,7.65
2022-08-21T17:56:15.892Z,5.85
2022-08-21T17:58:48.358Z,10.55
2022-08-21T18:01:16.243Z,4.93
2022-08-21T18:03:43.430Z,4.53
2022-08-21T18:06:12.335Z,4.90
2022-08-21T18:08:42.395Z,4.15
2022-08-21T18:11:10.514Z,6.78
2022-08-21T18:13:50.216Z,5.10
2022-08-21T18:16:19.855Z,5.57
2022-08-21T18:18:49.161Z,4.78
2022-08-21T18:21:16.256Z,5.10
2022-08-21T18:23:44.941Z,6.15
2022-08-21T18:26:18.697Z,7.95
2022-08-21T18:28:45.717Z,7.00
2022-08-21T18:31:13.329Z,6.20
2022-08-21T18:34:21.794Z,6.87
2022-08-21T18:37:09.629Z,7.47
2022-08-21T18:39:57.095Z,8.05
2022-08-21T18:42:58.909Z,6.03
2022-08-21T18:45:26.963Z,6.62
2022-08-21T18:48:16.065Z,9.82
2022-08-21T18:50:45.914Z,7.03
2022-08-21T18:53:27.627Z,7.75
2022-08-21T18:55:57.869Z,7.13
2022-08-21T18:58:33.251Z,6.30
2022-08-21T19:01:00.494Z,7.82
2022-08-21T19:03:27.907Z,10.23
2022-08-21T19:05:55.439Z,7.60
2022-08-21T19:08:24.607Z,9.23
2022-08-21T19:10:55.626Z,7.40
2022-08-21T19:13:23.336Z,7.40
2022-08-21T19:15:55.346Z,9.23
2022-08-21T19:18:28.329Z,9.63
2022-08-21T19:20:57.414Z,7.73
2022-08-21T19:23:29.249Z,9.88
2022-08-21T19:26:00.572Z,9.18
2022-08-21T19:28:37.667Z,7.62
2022-08-21T19:31:16.406Z,9.00
2022-08-21T19:33:50.762Z,6.97
2022-08-21T19:36:18.720Z,9.10
2022-08-21T19:38:47.417Z,8.38
2022-08-21T19:41:17.053Z,10.55
2022-08-21T19:43:57.367Z,9.02
2022-08-21T19:46:28.669Z,9.67
2022-08-21T19:48:56.910Z,9.48
2022-08-21T19:51:25.019Z,9.95
2022-08-21T19:53:55.811Z,11.48
2022-08-21T19:56:32.215Z,7.82
2022-08-21T19:59:03.965Z,9.17
2022-08-21T20:01:34.480Z,8.95
2022-08-21T20:04:01.757Z,8.75
2022-08-21T20:06:28.934Z,8.95
2022-08-21T20:08:56.390Z,7.60
2022-08-21T20:11:33.453Z,8.07
2022-08-21T20:14:01.678Z,9.50
2022-08-21T20:16:29.858Z,7.65
2022-08-21T20:18:57.993Z,11.18
2022-08-21T20:21:25.094Z,9.02
2022-08-21T20:23:53.156Z,9.13
2022-08-21T20:26:20.295Z,10.20
2022-08-21T20:28:50.514Z,7.55
2022-08-21T20:31:20.701Z,9.50
2022-08-21T20:33:49.975Z,9.60
2022-08-21T20:36:18.257Z,12.13
2022-08-21T20:38:48.242Z,11.55
2022-08-21T20:41:17.877Z,10.85
2022-08-21T20:43:48.872Z,9.88
2022-08-21T20:46:21.431Z,9.82
2022-08-21T20:48:49.105Z,8.77
2022-08-21T20:51:45.104Z,12.00
2022-08-21T20:54:20.452Z,11.07
2022-08-21T20:57:04.206Z,10.15
2022-08-21T20:59:33.999Z,11.95
2022-08-21T21:02:15.940Z,10.30
2022-08-21T21:04:48.402Z,11.85
2022-08-21T21:07:26.251Z,11.07
2022-08-21T21:09:55.859Z,11.70
2022-08-21T21:12:40.395Z,10.05
2022-08-21T21:15:14.110Z,8.43
2022-08-21T21:18:26.158Z,10.07
2022-08-21T21:21:19.537Z,8.57
2022-08-21T21:23:59.573Z,6.87
2022-08-21T21:26:54.214Z,6.50
2022-08-21T21:29:32.769Z,7.37
2022-08-21T21:32:00.779Z,9.07
2022-08-21T21:34:31.689Z,9.50
2022-08-21T21:37:14.763Z,6.30
2022-08-21T21:39:57.953Z,8.50
2022-08-21T21:42:47.139Z,9.83
2022-08-21T21:45:27.835Z,6.82
2022-08-21T21:48:21.228Z,7.78
2022-08-21T21:51:01.106Z,6.45
2022-08-21T21:53:43.285Z,7.87
2022-08-21T21:56:18.672Z,4.23
2022-08-21T21:59:15.503Z,4.75
2022-08-21T22:02:10.212Z,4.20
2022-08-21T22:05:01.467Z,5.22
2022-08-21T22:07:35.182Z,4.45
2022-08-21T22:10:30.754Z,4.30
2022-08-21T22:13:56.189Z,5.55
2022-08-21T22:16:23.175Z,3.67
2022-08-21T22:19:08.256Z,5.37
2022-08-21T22:21:47.594Z,5.12
2022-08-21T22:24:40.398Z,4.00
2022-08-21T22:27:12.669Z,5.68
2022-08-21T22:30:00.093Z,4.07
2022-08-21T22:32:45.676Z,6.10
2022-08-21T22:35:33.256Z,4.87
2022-08-21T22:38:01.462Z,4.73
2022-08-21T22:40:34.950Z,4.50
2022-08-21T22:43:02.510Z,4.35
2022-08-21T22:45:32.430Z,4.10
2022-08-21T22:48:11.236Z,3.33
2022-08-21T22:51:01.271Z,4.17
2022-08-21T22:53:30.512Z,5.65
2022-08-21T22:56:00.491Z,3.78
2022-08-21T22:58:56.218Z,3.45
2022-08-21T23:01:23.755Z,3.58
2022-08-21T23:03:52.636Z,2.77
2022-08-21T23:06:35.336Z,4.12
2022-08-21T23:09:03.559Z,4.65
2022-08-21T23:11:43.181Z,5.15
2022-08-21T23:14:14.048Z,3.33
2022-08-21T23:16:50.774Z,6.13
2022-08-21T23:19:53.154Z,4.37
2022-08-21T23:22:38.532Z,3.87
2022-08-21T23:25:24.385Z,5.22
2022-08-21T23:28:05.299Z,3.12
2022-08-21T23:30:55.586Z,3.03
2022-08-21T23:33:57.267Z,3.15
2022-08-21T23:36:51.900Z,3.85
2022-08-21T23:40:02.960Z,4.22
2022-08-21T23:42:35.957Z,3.67
2022-08-21T23:45:32.862Z,3.77
2022-08-21T23:48:35.583Z,6.12
2022-08-21T23:51:12.577Z,3.67
2022-08-21T23:53:56.279Z,4.12
2022-08-21T23:56:44.971Z,3.08
2022-08-21T23:59:48.464Z,2.40
